sensor_id;sensor_type;location;lat;lon;timestamp;P1;durP1;ratioP1;P2;durP2;ratioP2
25073;SDS011;13066;52.042;5.648;2023-03-12T00:01:12;12.23;;;6.13;;
25073;SDS011;13066;52.042;5.648;2023-03-12T00:03:41;17.17;;;6.13;;
25073;SDS011;13066;52.042;5.648;2023-03-12T00:06:10;10.27;;;5.00;;
25073;SDS011;13066;52.042;5.648;2023-03-12T00:08:39;7.47;;;4.45;;
25073;SDS011;13066;52.042;5.648;2023-03-12T00:11:08;9.18;;;5.03;;
25073;SDS011;13066;52.042;5.648;2023-03-12T00:13:37;14.13;;;4.95;;
25073;SDS011;13066;52.042;5.648;2023-03-12T00:16:05;13.63;;;5.28;;
25073;SDS011;13066;52.042;5.648;2023-03-12T00:18:36;15.70;;;5.82;;
25073;SDS011;13066;52.042;5.648;2023-03-12T00:21:04;14.18;;;5.82;;
25073;SDS011;13066;52.042;5.648;2023-03-12T00:23:33;12.52;;;6.40;;
25073;SDS011;13066;52.042;5.648;2023-03-12T00:26:02;14.20;;;6.13;;
25073;SDS011;13066;52.042;5.648;2023-03-12T00:28:32;16.42;;;6.25;;
25073;SDS011;13066;52.042;5.648;2023-03-12T00:31:00;19.30;;;5.55;;
25073;SDS011;13066;52.042;5.648;2023-03-12T00:33:29;9.48;;;5.32;;
25073;SDS011;13066;52.042;5.648;2023-03-12T00:35:58;13.98;;;6.43;;
25073;SDS011;13066;52.042;5.648;2023-03-12T00:38:27;12.15;;;5.90;;
25073;SDS011;13066;52.042;5.648;2023-03-12T00:40:55;14.93;;;6.32;;
25073;SDS011;13066;52.042;5.648;2023-03-12T00:43:23;11.65;;;5.55;;
25073;SDS011;13066;52.042;5.648;2023-03-12T00:45:51;15.48;;;6.30;;
25073;SDS011;13066;52.042;5.648;2023-03-12T00:48:19;14.63;;;6.22;;
25073;SDS011;13066;52.042;5.648;2023-03-12T00:50:47;16.42;;;5.95;;
25073;SDS011;13066;52.042;5.648;2023-03-12T00:53:16;9.63;;;5.68;;
25073;SDS011;13066;52.042;5.648;2023-03-12T00:55:44;13.70;;;5.72;;
25073;SDS011;13066;52.042;5.648;2023-03-12T00:58:12;16.38;;;6.40;;
25073;SDS011;13066;52.042;5.648;2023-03-12T01:00:41;11.43;;;5.22;;
25073;SDS011;13066;52.042;5.648;2023-03-12T01:03:09;14.38;;;4.63;;
25073;SDS011;13066;52.042;5.648;2023-03-12T01:05:37;12.57;;;4.00;;
25073;SDS011;13066;52.042;5.648;2023-03-12T01:08:06;11.50;;;4.78;;
25073;SDS011;13066;52.042;5.648;2023-03-12T01:10:40;9.98;;;4.32;;
25073;SDS011;13066;52.042;5.648;2023-03-12T01:13:09;10.70;;;4.25;;
25073;SDS011;13066;52.042;5.648;2023-03-12T01:15:37;10.45;;;4.47;;
25073;SDS011;13066;52.042;5.648;2023-03-12T01:18:05;14.70;;;4.68;;
25073;SDS011;13066;52.042;5.648;2023-03-12T01:20:32;17.10;;;4.28;;
25073;SDS011;13066;52.042;5.648;2023-03-12T01:23:00;18.80;;;4.00;;
25073;SDS011;13066;52.042;5.648;2023-03-12T01:25:28;7.57;;;3.60;;
25073;SDS011;13066;52.042;5.648;2023-03-12T01:27:58;13.00;;;3.97;;
25073;SDS011;13066;52.042;5.648;2023-03-12T01:30:26;8.25;;;3.60;;
25073;SDS011;13066;52.042;5.648;2023-03-12T01:32:54;8.40;;;3.72;;
25073;SDS011;13066;52.042;5.648;2023-03-12T01:35:22;9.68;;;3.85;;
25073;SDS011;13066;52.042;5.648;2023-03-12T01:37:50;10.13;;;4.53;;
25073;SDS011;13066;52.042;5.648;2023-03-12T01:40:19;7.45;;;4.13;;
25073;SDS011;13066;52.042;5.648;2023-03-12T01:42:51;9.40;;;3.70;;
25073;SDS011;13066;52.042;5.648;2023-03-12T01:48:29;8.23;;;3.80;;
25073;SDS011;13066;52.042;5.648;2023-03-12T01:50:59;7.50;;;3.60;;
25073;SDS011;13066;52.042;5.648;2023-03-12T01:53:28;9.52;;;3.53;;
25073;SDS011;13066;52.042;5.648;2023-03-12T01:55:57;11.85;;;3.25;;
25073;SDS011;13066;52.042;5.648;2023-03-12T01:58:27;12.85;;;3.70;;
25073;SDS011;13066;52.042;5.648;2023-03-12T02:00:55;7.85;;;3.20;;
25073;SDS011;13066;52.042;5.648;2023-03-12T02:03:25;7.28;;;3.22;;
25073;SDS011;13066;52.042;5.648;2023-03-12T02:05:54;6.47;;;3.33;;
25073;SDS011;13066;52.042;5.648;2023-03-12T02:08:23;8.73;;;3.65;;
25073;SDS011;13066;52.042;5.648;2023-03-12T02:10:51;7.88;;;2.80;;
25073;SDS011;13066;52.042;5.648;2023-03-12T02:13:19;7.07;;;3.20;;
25073;SDS011;13066;52.042;5.648;2023-03-12T02:15:47;9.45;;;2.80;;
25073;SDS011;13066;52.042;5.648;2023-03-12T02:18:17;8.05;;;3.90;;
25073;SDS011;13066;52.042;5.648;2023-03-12T02:20:49;7.25;;;3.60;;
25073;SDS011;13066;52.042;5.648;2023-03-12T02:23:20;14.07;;;4.38;;
25073;SDS011;13066;52.042;5.648;2023-03-12T02:25:55;10.10;;;4.68;;
25073;SDS011;13066;52.042;5.648;2023-03-12T02:28:26;9.05;;;4.30;;
25073;SDS011;13066;52.042;5.648;2023-03-12T02:30:56;11.18;;;4.25;;
25073;SDS011;13066;52.042;5.648;2023-03-12T02:33:26;12.57;;;4.95;;
25073;SDS011;13066;52.042;5.648;2023-03-12T02:35:54;11.13;;;4.40;;
25073;SDS011;13066;52.042;5.648;2023-03-12T02:38:30;11.43;;;5.13;;
25073;SDS011;13066;52.042;5.648;2023-03-12T02:41:04;19.23;;;5.60;;
25073;SDS011;13066;52.042;5.648;2023-03-12T02:43:32;9.85;;;5.13;;
25073;SDS011;13066;52.042;5.648;2023-03-12T02:46:01;12.77;;;4.22;;
25073;SDS011;13066;52.042;5.648;2023-03-12T02:48:29;9.25;;;4.00;;
25073;SDS011;13066;52.042;5.648;2023-03-12T02:50:57;11.68;;;3.85;;
25073;SDS011;13066;52.042;5.648;2023-03-12T02:53:25;11.07;;;3.30;;
25073;SDS011;13066;52.042;5.648;2023-03-12T02:55:54;8.80;;;3.67;;
25073;SDS011;13066;52.042;5.648;2023-03-12T02:58:23;20.45;;;3.42;;
25073;SDS011;13066;52.042;5.648;2023-03-12T03:00:52;6.47;;;3.38;;
25073;SDS011;13066;52.042;5.648;2023-03-12T03:03:20;14.20;;;4.22;;
25073;SDS011;13066;52.042;5.648;2023-03-12T03:05:48;11.02;;;4.32;;
25073;SDS011;13066;52.042;5.648;2023-03-12T03:08:17;10.25;;;4.20;;
25073;SDS011;13066;52.042;5.648;2023-03-12T03:10:45;9.75;;;4.32;;
25073;SDS011;13066;52.042;5.648;2023-03-12T03:13:13;13.32;;;4.38;;
25073;SDS011;13066;52.042;5.648;2023-03-12T03:15:43;10.23;;;4.05;;
25073;SDS011;13066;52.042;5.648;2023-03-12T03:18:11;12.02;;;4.30;;
25073;SDS011;13066;52.042;5.648;2023-03-12T03:20:39;9.40;;;3.97;;
25073;SDS011;13066;52.042;5.648;2023-03-12T03:23:08;11.02;;;3.72;;
25073;SDS011;13066;52.042;5.648;2023-03-12T03:25:38;13.40;;;4.20;;
25073;SDS011;13066;52.042;5.648;2023-03-12T03:28:06;9.90;;;3.97;;
25073;SDS011;13066;52.042;5.648;2023-03-12T03:30:36;8.10;;;3.47;;
25073;SDS011;13066;52.042;5.648;2023-03-12T03:33:07;9.65;;;3.72;;
25073;SDS011;13066;52.042;5.648;2023-03-12T03:35:35;12.60;;;3.22;;
25073;SDS011;13066;52.042;5.648;2023-03-12T03:38:03;7.22;;;3.05;;
25073;SDS011;13066;52.042;5.648;2023-03-12T03:40:33;10.15;;;3.45;;
25073;SDS011;13066;52.042;5.648;2023-03-12T03:43:01;12.77;;;3.38;;
25073;SDS011;13066;52.042;5.648;2023-03-12T03:45:29;7.55;;;2.83;;
25073;SDS011;13066;52.042;5.648;2023-03-12T03:47:58;8.38;;;2.58;;
25073;SDS011;13066;52.042;5.648;2023-03-12T03:50:28;15.98;;;3.10;;
25073;SDS011;13066;52.042;5.648;2023-03-12T03:52:56;9.45;;;3.30;;
25073;SDS011;13066;52.042;5.648;2023-03-12T03:55:25;11.20;;;3.60;;
25073;SDS011;13066;52.042;5.648;2023-03-12T03:57:53;10.80;;;3.97;;
25073;SDS011;13066;52.042;5.648;2023-03-12T04:00:21;9.55;;;4.38;;
25073;SDS011;13066;52.042;5.648;2023-03-12T04:02:51;15.40;;;4.15;;
25073;SDS011;13066;52.042;5.648;2023-03-12T04:05:22;8.48;;;3.83;;
25073;SDS011;13066;52.042;5.648;2023-03-12T04:07:54;10.90;;;4.38;;
25073;SDS011;13066;52.042;5.648;2023-03-12T04:10:25;8.07;;;3.95;;
25073;SDS011;13066;52.042;5.648;2023-03-12T04:12:55;6.13;;;3.45;;
25073;SDS011;13066;52.042;5.648;2023-03-12T04:15:23;13.10;;;3.42;;
25073;SDS011;13066;52.042;5.648;2023-03-12T04:17:52;8.27;;;3.63;;
25073;SDS011;13066;52.042;5.648;2023-03-12T04:20:20;9.07;;;3.47;;
25073;SDS011;13066;52.042;5.648;2023-03-12T04:22:48;9.20;;;3.30;;
25073;SDS011;13066;52.042;5.648;2023-03-12T04:25:17;10.88;;;3.83;;
25073;SDS011;13066;52.042;5.648;2023-03-12T04:27:45;8.27;;;3.15;;
25073;SDS011;13066;52.042;5.648;2023-03-12T04:30:14;9.52;;;3.92;;
25073;SDS011;13066;52.042;5.648;2023-03-12T04:32:43;11.32;;;3.25;;
25073;SDS011;13066;52.042;5.648;2023-03-12T04:35:11;8.32;;;3.30;;
25073;SDS011;13066;52.042;5.648;2023-03-12T04:37:39;7.72;;;2.80;;
25073;SDS011;13066;52.042;5.648;2023-03-12T04:40:09;7.80;;;3.10;;
25073;SDS011;13066;52.042;5.648;2023-03-12T04:42:39;13.05;;;3.28;;
25073;SDS011;13066;52.042;5.648;2023-03-12T04:45:08;9.63;;;3.13;;
25073;SDS011;13066;52.042;5.648;2023-03-12T04:47:42;8.07;;;3.15;;
25073;SDS011;13066;52.042;5.648;2023-03-12T04:50:11;7.40;;;3.20;;
25073;SDS011;13066;52.042;5.648;2023-03-12T04:52:39;8.73;;;3.17;;
25073;SDS011;13066;52.042;5.648;2023-03-12T04:55:08;8.85;;;3.20;;
25073;SDS011;13066;52.042;5.648;2023-03-12T04:57:36;11.05;;;3.63;;
25073;SDS011;13066;52.042;5.648;2023-03-12T05:00:06;15.30;;;3.47;;
25073;SDS011;13066;52.042;5.648;2023-03-12T05:02:39;8.70;;;3.47;;
25073;SDS011;13066;52.042;5.648;2023-03-12T05:05:09;9.50;;;4.05;;
25073;SDS011;13066;52.042;5.648;2023-03-12T05:07:38;11.02;;;4.47;;
25073;SDS011;13066;52.042;5.648;2023-03-12T05:10:07;7.03;;;3.63;;
25073;SDS011;13066;52.042;5.648;2023-03-12T05:12:36;11.52;;;3.90;;
25073;SDS011;13066;52.042;5.648;2023-03-12T05:15:06;11.65;;;3.95;;
25073;SDS011;13066;52.042;5.648;2023-03-12T05:17:35;9.90;;;3.80;;
25073;SDS011;13066;52.042;5.648;2023-03-12T05:20:04;12.73;;;4.40;;
25073;SDS011;13066;52.042;5.648;2023-03-12T05:22:33;8.20;;;3.85;;
25073;SDS011;13066;52.042;5.648;2023-03-12T05:25:01;10.23;;;3.72;;
25073;SDS011;13066;52.042;5.648;2023-03-12T05:27:29;7.20;;;3.45;;
25073;SDS011;13066;52.042;5.648;2023-03-12T05:29:58;10.13;;;4.75;;
25073;SDS011;13066;52.042;5.648;2023-03-12T05:32:27;9.90;;;4.80;;
25073;SDS011;13066;52.042;5.648;2023-03-12T05:34:55;10.73;;;5.03;;
25073;SDS011;13066;52.042;5.648;2023-03-12T05:37:24;11.43;;;4.60;;
25073;SDS011;13066;52.042;5.648;2023-03-12T05:39:52;12.02;;;5.00;;
25073;SDS011;13066;52.042;5.648;2023-03-12T05:42:20;12.23;;;4.50;;
25073;SDS011;13066;52.042;5.648;2023-03-12T05:44:51;9.40;;;4.57;;
25073;SDS011;13066;52.042;5.648;2023-03-12T05:47:20;10.57;;;3.83;;
25073;SDS011;13066;52.042;5.648;2023-03-12T05:49:52;11.07;;;3.90;;
25073;SDS011;13066;52.042;5.648;2023-03-12T05:52:20;7.28;;;4.28;;
25073;SDS011;13066;52.042;5.648;2023-03-12T05:54:50;12.45;;;3.75;;
25073;SDS011;13066;52.042;5.648;2023-03-12T05:57:19;8.52;;;3.72;;
25073;SDS011;13066;52.042;5.648;2023-03-12T05:59:47;9.43;;;3.90;;
25073;SDS011;13066;52.042;5.648;2023-03-12T06:02:15;10.40;;;3.70;;
25073;SDS011;13066;52.042;5.648;2023-03-12T06:04:43;16.88;;;4.35;;
25073;SDS011;13066;52.042;5.648;2023-03-12T06:07:13;6.70;;;3.70;;
25073;SDS011;13066;52.042;5.648;2023-03-12T06:09:41;9.73;;;3.80;;
25073;SDS011;13066;52.042;5.648;2023-03-12T06:12:10;11.52;;;3.80;;
25073;SDS011;13066;52.042;5.648;2023-03-12T06:14:38;10.73;;;3.33;;
25073;SDS011;13066;52.042;5.648;2023-03-12T06:17:06;11.95;;;3.55;;
25073;SDS011;13066;52.042;5.648;2023-03-12T06:19:35;9.10;;;3.70;;
25073;SDS011;13066;52.042;5.648;2023-03-12T06:22:03;9.98;;;3.40;;
25073;SDS011;13066;52.042;5.648;2023-03-12T06:24:32;10.23;;;3.22;;
25073;SDS011;13066;52.042;5.648;2023-03-12T06:27:04;9.38;;;4.00;;
25073;SDS011;13066;52.042;5.648;2023-03-12T06:29:32;8.82;;;3.75;;
25073;SDS011;13066;52.042;5.648;2023-03-12T06:32:00;9.30;;;4.07;;
25073;SDS011;13066;52.042;5.648;2023-03-12T06:34:28;10.50;;;3.60;;
25073;SDS011;13066;52.042;5.648;2023-03-12T06:36:56;8.82;;;4.38;;
25073;SDS011;13066;52.042;5.648;2023-03-12T06:39:24;10.55;;;3.92;;
25073;SDS011;13066;52.042;5.648;2023-03-12T06:41:53;14.23;;;3.85;;
25073;SDS011;13066;52.042;5.648;2023-03-12T06:44:21;15.93;;;4.03;;
25073;SDS011;13066;52.042;5.648;2023-03-12T06:46:50;12.65;;;3.90;;
25073;SDS011;13066;52.042;5.648;2023-03-12T06:49:20;7.15;;;3.75;;
25073;SDS011;13066;52.042;5.648;2023-03-12T06:51:48;14.57;;;3.65;;
25073;SDS011;13066;52.042;5.648;2023-03-12T06:54:17;9.13;;;4.10;;
25073;SDS011;13066;52.042;5.648;2023-03-12T06:56:45;8.10;;;4.28;;
25073;SDS011;13066;52.042;5.648;2023-03-12T06:59:14;18.58;;;4.30;;
25073;SDS011;13066;52.042;5.648;2023-03-12T07:01:43;9.60;;;4.05;;
25073;SDS011;13066;52.042;5.648;2023-03-12T07:04:11;12.52;;;4.43;;
25073;SDS011;13066;52.042;5.648;2023-03-12T07:06:40;14.52;;;4.38;;
25073;SDS011;13066;52.042;5.648;2023-03-12T07:09:08;15.25;;;5.00;;
25073;SDS011;13066;52.042;5.648;2023-03-12T07:11:36;14.60;;;4.40;;
25073;SDS011;13066;52.042;5.648;2023-03-12T07:14:04;13.75;;;4.68;;
25073;SDS011;13066;52.042;5.648;2023-03-12T07:16:33;10.57;;;4.45;;
25073;SDS011;13066;52.042;5.648;2023-03-12T07:19:01;16.20;;;4.75;;
25073;SDS011;13066;52.042;5.648;2023-03-12T07:21:30;12.07;;;4.80;;
25073;SDS011;13066;52.042;5.648;2023-03-12T07:23:58;16.52;;;4.70;;
25073;SDS011;13066;52.042;5.648;2023-03-12T07:26:29;10.75;;;4.38;;
25073;SDS011;13066;52.042;5.648;2023-03-12T07:28:57;11.55;;;4.60;;
25073;SDS011;13066;52.042;5.648;2023-03-12T07:31:25;11.55;;;4.57;;
25073;SDS011;13066;52.042;5.648;2023-03-12T07:33:54;15.38;;;4.88;;
25073;SDS011;13066;52.042;5.648;2023-03-12T07:36:23;14.15;;;4.75;;
25073;SDS011;13066;52.042;5.648;2023-03-12T07:38:51;12.55;;;4.90;;
25073;SDS011;13066;52.042;5.648;2023-03-12T07:41:19;11.98;;;4.45;;
25073;SDS011;13066;52.042;5.648;2023-03-12T07:43:48;18.27;;;5.53;;
25073;SDS011;13066;52.042;5.648;2023-03-12T07:46:16;23.73;;;6.15;;
25073;SDS011;13066;52.042;5.648;2023-03-12T07:48:44;14.77;;;5.28;;
25073;SDS011;13066;52.042;5.648;2023-03-12T07:51:14;11.63;;;5.28;;
25073;SDS011;13066;52.042;5.648;2023-03-12T07:53:42;12.65;;;5.45;;
25073;SDS011;13066;52.042;5.648;2023-03-12T07:56:09;11.98;;;5.88;;
25073;SDS011;13066;52.042;5.648;2023-03-12T07:58:38;11.07;;;5.47;;
25073;SDS011;13066;52.042;5.648;2023-03-12T08:01:06;14.82;;;6.25;;
25073;SDS011;13066;52.042;5.648;2023-03-12T08:03:34;13.48;;;5.63;;
25073;SDS011;13066;52.042;5.648;2023-03-12T08:06:03;14.07;;;6.25;;
25073;SDS011;13066;52.042;5.648;2023-03-12T08:08:33;15.30;;;5.90;;
25073;SDS011;13066;52.042;5.648;2023-03-12T08:11:04;14.32;;;5.82;;
25073;SDS011;13066;52.042;5.648;2023-03-12T08:13:32;18.27;;;6.63;;
25073;SDS011;13066;52.042;5.648;2023-03-12T08:16:00;16.02;;;6.53;;
25073;SDS011;13066;52.042;5.648;2023-03-12T08:18:28;16.98;;;7.13;;
25073;SDS011;13066;52.042;5.648;2023-03-12T08:20:56;13.07;;;6.38;;
25073;SDS011;13066;52.042;5.648;2023-03-12T08:23:25;16.80;;;6.28;;
25073;SDS011;13066;52.042;5.648;2023-03-12T08:25:54;18.20;;;7.07;;
25073;SDS011;13066;52.042;5.648;2023-03-12T08:28:22;14.75;;;6.88;;
25073;SDS011;13066;52.042;5.648;2023-03-12T08:30:51;13.00;;;6.80;;
25073;SDS011;13066;52.042;5.648;2023-03-12T08:33:20;15.13;;;6.93;;
25073;SDS011;13066;52.042;5.648;2023-03-12T08:35:49;16.08;;;6.45;;
25073;SDS011;13066;52.042;5.648;2023-03-12T08:38:17;13.52;;;6.57;;
25073;SDS011;13066;52.042;5.648;2023-03-12T08:40:45;19.42;;;6.93;;
25073;SDS011;13066;52.042;5.648;2023-03-12T08:43:15;14.23;;;6.80;;
25073;SDS011;13066;52.042;5.648;2023-03-12T08:45:42;16.45;;;7.93;;
25073;SDS011;13066;52.042;5.648;2023-03-12T08:48:10;15.93;;;7.55;;
25073;SDS011;13066;52.042;5.648;2023-03-12T08:50:38;15.05;;;6.97;;
25073;SDS011;13066;52.042;5.648;2023-03-12T08:53:06;10.88;;;7.03;;
25073;SDS011;13066;52.042;5.648;2023-03-12T08:55:34;15.10;;;7.32;;
25073;SDS011;13066;52.042;5.648;2023-03-12T08:58:02;13.65;;;7.72;;
25073;SDS011;13066;52.042;5.648;2023-03-12T09:00:32;15.70;;;7.95;;
25073;SDS011;13066;52.042;5.648;2023-03-12T09:03:00;14.38;;;8.65;;
25073;SDS011;13066;52.042;5.648;2023-03-12T09:05:28;16.08;;;9.07;;
25073;SDS011;13066;52.042;5.648;2023-03-12T09:07:56;20.83;;;9.15;;
25073;SDS011;13066;52.042;5.648;2023-03-12T09:10:24;20.75;;;9.70;;
25073;SDS011;13066;52.042;5.648;2023-03-12T09:12:56;17.58;;;10.27;;
25073;SDS011;13066;52.042;5.648;2023-03-12T09:15:24;20.23;;;9.18;;
25073;SDS011;13066;52.042;5.648;2023-03-12T09:17:54;16.45;;;9.25;;
25073;SDS011;13066;52.042;5.648;2023-03-12T09:20:22;16.73;;;9.48;;
25073;SDS011;13066;52.042;5.648;2023-03-12T09:22:51;20.58;;;9.90;;
25073;SDS011;13066;52.042;5.648;2023-03-12T09:25:19;16.77;;;9.65;;
25073;SDS011;13066;52.042;5.648;2023-03-12T09:27:48;19.92;;;10.00;;
25073;SDS011;13066;52.042;5.648;2023-03-12T09:30:17;16.17;;;10.18;;
25073;SDS011;13066;52.042;5.648;2023-03-12T09:32:46;19.80;;;10.60;;
25073;SDS011;13066;52.042;5.648;2023-03-12T09:35:15;18.58;;;10.68;;
25073;SDS011;13066;52.042;5.648;2023-03-12T09:37:46;18.90;;;10.77;;
25073;SDS011;13066;52.042;5.648;2023-03-12T09:40:17;19.23;;;10.75;;
25073;SDS011;13066;52.042;5.648;2023-03-12T09:42:47;22.75;;;12.60;;
25073;SDS011;13066;52.042;5.648;2023-03-12T09:45:18;22.23;;;12.77;;
25073;SDS011;13066;52.042;5.648;2023-03-12T09:47:48;25.17;;;13.50;;
25073;SDS011;13066;52.042;5.648;2023-03-12T09:50:20;24.38;;;13.10;;
25073;SDS011;13066;52.042;5.648;2023-03-12T09:52:52;21.10;;;13.55;;
25073;SDS011;13066;52.042;5.648;2023-03-12T09:55:24;27.27;;;15.20;;
25073;SDS011;13066;52.042;5.648;2023-03-12T09:57:55;25.83;;;14.32;;
25073;SDS011;13066;52.042;5.648;2023-03-12T10:00:26;27.75;;;16.13;;
25073;SDS011;13066;52.042;5.648;2023-03-12T10:03:08;27.25;;;15.85;;
25073;SDS011;13066;52.042;5.648;2023-03-12T10:05:44;32.08;;;16.90;;
25073;SDS011;13066;52.042;5.648;2023-03-12T10:08:15;31.55;;;17.10;;
25073;SDS011;13066;52.042;5.648;2023-03-12T10:10:55;31.38;;;18.10;;
25073;SDS011;13066;52.042;5.648;2023-03-12T10:13:39;31.83;;;18.20;;
25073;SDS011;13066;52.042;5.648;2023-03-12T10:16:15;39.03;;;18.60;;
25073;SDS011;13066;52.042;5.648;2023-03-12T10:19:11;40.58;;;20.10;;
25073;SDS011;13066;52.042;5.648;2023-03-12T10:21:49;38.33;;;20.25;;
25073;SDS011;13066;52.042;5.648;2023-03-12T10:26:51;35.95;;;20.73;;
25073;SDS011;13066;52.042;5.648;2023-03-12T10:29:21;37.58;;;20.15;;
25073;SDS011;13066;52.042;5.648;2023-03-12T10:31:52;38.40;;;20.92;;
25073;SDS011;13066;52.042;5.648;2023-03-12T10:34:24;47.92;;;23.65;;
25073;SDS011;13066;52.042;5.648;2023-03-12T10:36:58;43.83;;;22.90;;
25073;SDS011;13066;52.042;5.648;2023-03-12T10:39:29;48.15;;;23.65;;
25073;SDS011;13066;52.042;5.648;2023-03-12T10:41:58;45.75;;;23.55;;
25073;SDS011;13066;52.042;5.648;2023-03-12T10:44:27;40.30;;;21.45;;
25073;SDS011;13066;52.042;5.648;2023-03-12T10:47:00;42.25;;;22.23;;
25073;SDS011;13066;52.042;5.648;2023-03-12T10:49:33;40.85;;;22.00;;
25073;SDS011;13066;52.042;5.648;2023-03-12T10:52:04;40.42;;;21.60;;
25073;SDS011;13066;52.042;5.648;2023-03-12T10:54:34;46.55;;;22.25;;
25073;SDS011;13066;52.042;5.648;2023-03-12T10:57:03;38.67;;;22.10;;
25073;SDS011;13066;52.042;5.648;2023-03-12T10:59:32;46.33;;;23.45;;
25073;SDS011;13066;52.042;5.648;2023-03-12T11:02:08;41.10;;;22.85;;
25073;SDS011;13066;52.042;5.648;2023-03-12T11:04:57;44.95;;;23.15;;
25073;SDS011;13066;52.042;5.648;2023-03-12T11:07:28;39.35;;;22.83;;
25073;SDS011;13066;52.042;5.648;2023-03-12T11:12:55;42.90;;;21.58;;
25073;SDS011;13066;52.042;5.648;2023-03-12T11:15:26;38.28;;;22.38;;
25073;SDS011;13066;52.042;5.648;2023-03-12T11:18:17;49.67;;;22.83;;
25073;SDS011;13066;52.042;5.648;2023-03-12T11:20:56;40.58;;;21.55;;
25073;SDS011;13066;52.042;5.648;2023-03-12T11:23:40;41.08;;;20.65;;
25073;SDS011;13066;52.042;5.648;2023-03-12T11:26:11;40.25;;;20.40;;
25073;SDS011;13066;52.042;5.648;2023-03-12T11:28:42;42.97;;;20.17;;
25073;SDS011;13066;52.042;5.648;2023-03-12T11:31:14;44.95;;;19.95;;
25073;SDS011;13066;52.042;5.648;2023-03-12T11:33:46;51.70;;;18.63;;
25073;SDS011;13066;52.042;5.648;2023-03-12T11:36:18;55.92;;;19.30;;
25073;SDS011;13066;52.042;5.648;2023-03-12T11:38:55;43.50;;;17.70;;
25073;SDS011;13066;52.042;5.648;2023-03-12T11:41:36;42.45;;;16.38;;
25073;SDS011;13066;52.042;5.648;2023-03-12T11:44:18;48.60;;;16.20;;
25073;SDS011;13066;52.042;5.648;2023-03-12T11:46:53;38.72;;;15.60;;
25073;SDS011;13066;52.042;5.648;2023-03-12T11:49:29;45.78;;;15.23;;
25073;SDS011;13066;52.042;5.648;2023-03-12T11:52:07;38.35;;;13.68;;
25073;SDS011;13066;52.042;5.648;2023-03-12T11:54:46;34.72;;;13.20;;
25073;SDS011;13066;52.042;5.648;2023-03-12T11:57:21;46.38;;;12.80;;
25073;SDS011;13066;52.042;5.648;2023-03-12T11:59:58;36.95;;;12.75;;
25073;SDS011;13066;52.042;5.648;2023-03-12T12:02:42;39.58;;;10.52;;
25073;SDS011;13066;52.042;5.648;2023-03-12T12:05:26;32.80;;;10.18;;
25073;SDS011;13066;52.042;5.648;2023-03-12T12:08:08;39.88;;;12.07;;
25073;SDS011;13066;52.042;5.648;2023-03-12T12:10:51;62.45;;;20.17;;
25073;SDS011;13066;52.042;5.648;2023-03-12T12:13:30;34.88;;;11.02;;
25073;SDS011;13066;52.042;5.648;2023-03-12T12:16:08;46.67;;;9.20;;
25073;SDS011;13066;52.042;5.648;2023-03-12T12:18:49;50.95;;;11.05;;
25073;SDS011;13066;52.042;5.648;2023-03-12T12:21:27;49.20;;;10.40;;
25073;SDS011;13066;52.042;5.648;2023-03-12T12:24:04;41.22;;;9.57;;
25073;SDS011;13066;52.042;5.648;2023-03-12T12:26:41;41.53;;;10.13;;
25073;SDS011;13066;52.042;5.648;2023-03-12T12:29:14;39.63;;;8.60;;
25073;SDS011;13066;52.042;5.648;2023-03-12T12:31:49;39.22;;;8.32;;
25073;SDS011;13066;52.042;5.648;2023-03-12T12:34:30;47.90;;;9.10;;
25073;SDS011;13066;52.042;5.648;2023-03-12T12:37:26;34.08;;;8.13;;
25073;SDS011;13066;52.042;5.648;2023-03-12T12:40:00;49.25;;;9.00;;
25073;SDS011;13066;52.042;5.648;2023-03-12T12:42:38;43.50;;;9.60;;
25073;SDS011;13066;52.042;5.648;2023-03-12T12:45:11;41.72;;;9.05;;
25073;SDS011;13066;52.042;5.648;2023-03-12T12:47:43;42.55;;;9.05;;
25073;SDS011;13066;52.042;5.648;2023-03-12T12:50:14;49.67;;;8.77;;
25073;SDS011;13066;52.042;5.648;2023-03-12T12:52:45;38.53;;;8.75;;
25073;SDS011;13066;52.042;5.648;2023-03-12T12:55:18;45.78;;;9.18;;
25073;SDS011;13066;52.042;5.648;2023-03-12T12:57:52;50.22;;;8.35;;
25073;SDS011;13066;52.042;5.648;2023-03-12T13:03:16;51.40;;;9.25;;
25073;SDS011;13066;52.042;5.648;2023-03-12T13:05:47;40.58;;;8.30;;
25073;SDS011;13066;52.042;5.648;2023-03-12T13:08:30;45.38;;;8.82;;
25073;SDS011;13066;52.042;5.648;2023-03-12T13:11:04;49.60;;;9.20;;
25073;SDS011;13066;52.042;5.648;2023-03-12T13:13:47;56.25;;;9.10;;
25073;SDS011;13066;52.042;5.648;2023-03-12T13:16:18;41.33;;;9.38;;
25073;SDS011;13066;52.042;5.648;2023-03-12T13:18:55;57.92;;;8.95;;
25073;SDS011;13066;52.042;5.648;2023-03-12T13:21:25;48.00;;;8.38;;
25073;SDS011;13066;52.042;5.648;2023-03-12T13:24:03;49.30;;;9.00;;
25073;SDS011;13066;52.042;5.648;2023-03-12T13:26:41;46.75;;;8.32;;
25073;SDS011;13066;52.042;5.648;2023-03-12T13:29:20;52.67;;;9.43;;
25073;SDS011;13066;52.042;5.648;2023-03-12T13:31:50;51.95;;;9.13;;
25073;SDS011;13066;52.042;5.648;2023-03-12T13:34:32;52.17;;;7.72;;
25073;SDS011;13066;52.042;5.648;2023-03-12T13:40:34;55.75;;;7.70;;
25073;SDS011;13066;52.042;5.648;2023-03-12T13:43:09;49.95;;;8.43;;
25073;SDS011;13066;52.042;5.648;2023-03-12T13:45:53;47.00;;;7.40;;
25073;SDS011;13066;52.042;5.648;2023-03-12T13:48:22;57.50;;;8.45;;
25073;SDS011;13066;52.042;5.648;2023-03-12T13:50:52;45.60;;;6.65;;
25073;SDS011;13066;52.042;5.648;2023-03-12T13:53:21;49.03;;;7.18;;
25073;SDS011;13066;52.042;5.648;2023-03-12T13:55:58;48.80;;;8.40;;
25073;SDS011;13066;52.042;5.648;2023-03-12T13:58:27;63.92;;;8.13;;
25073;SDS011;13066;52.042;5.648;2023-03-12T14:00:59;40.08;;;6.32;;
25073;SDS011;13066;52.042;5.648;2023-03-12T14:03:30;45.22;;;6.65;;
25073;SDS011;13066;52.042;5.648;2023-03-12T14:06:06;43.83;;;6.65;;
25073;SDS011;13066;52.042;5.648;2023-03-12T14:08:41;47.50;;;6.68;;
25073;SDS011;13066;52.042;5.648;2023-03-12T14:11:19;37.03;;;6.60;;
25073;SDS011;13066;52.042;5.648;2023-03-12T14:14:07;51.78;;;6.65;;
25073;SDS011;13066;52.042;5.648;2023-03-12T14:16:56;47.10;;;6.47;;
25073;SDS011;13066;52.042;5.648;2023-03-12T14:19:26;47.60;;;6.60;;
25073;SDS011;13066;52.042;5.648;2023-03-12T14:21:55;35.78;;;6.18;;
25073;SDS011;13066;52.042;5.648;2023-03-12T14:24:26;43.53;;;6.57;;
25073;SDS011;13066;52.042;5.648;2023-03-12T14:26:56;40.92;;;6.85;;
25073;SDS011;13066;52.042;5.648;2023-03-12T14:29:24;28.88;;;5.22;;
25073;SDS011;13066;52.042;5.648;2023-03-12T14:31:57;38.35;;;5.88;;
25073;SDS011;13066;52.042;5.648;2023-03-12T14:34:27;37.25;;;5.85;;
25073;SDS011;13066;52.042;5.648;2023-03-12T14:36:59;35.33;;;5.35;;
25073;SDS011;13066;52.042;5.648;2023-03-12T14:39:31;25.95;;;5.35;;
25073;SDS011;13066;52.042;5.648;2023-03-12T14:42:00;32.70;;;5.28;;
25073;SDS011;13066;52.042;5.648;2023-03-12T14:44:32;36.53;;;5.65;;
25073;SDS011;13066;52.042;5.648;2023-03-12T14:47:05;30.55;;;4.85;;
25073;SDS011;13066;52.042;5.648;2023-03-12T14:49:38;32.53;;;6.50;;
25073;SDS011;13066;52.042;5.648;2023-03-12T14:52:09;28.52;;;5.10;;
25073;SDS011;13066;52.042;5.648;2023-03-12T14:54:38;28.55;;;5.03;;
25073;SDS011;13066;52.042;5.648;2023-03-12T14:57:11;38.63;;;6.05;;
25073;SDS011;13066;52.042;5.648;2023-03-12T14:59:40;28.40;;;5.32;;
25073;SDS011;13066;52.042;5.648;2023-03-12T15:02:20;21.98;;;4.95;;
25073;SDS011;13066;52.042;5.648;2023-03-12T15:04:49;36.58;;;5.90;;
25073;SDS011;13066;52.042;5.648;2023-03-12T15:07:21;39.17;;;5.88;;
25073;SDS011;13066;52.042;5.648;2023-03-12T15:09:50;31.20;;;5.80;;
25073;SDS011;13066;52.042;5.648;2023-03-12T15:12:19;38.65;;;5.93;;